Time;durP1;ratioP1;P1;durP2;ratioP2;P2;SDS_P1;SDS_P2;PMS_P1;PMS_P2;Temp;Humidity;BMP_temperature;BMP_pressure;BME280_temperature;BME280_humidity;BME280_pressure;Samples;Min_cycle;Max_cycle;Signal;HPM_P1;HPM_P2
2022/10/27 00:00:53;;;;;;;20.42;15.68;;;;;;;;;;5042803;28;20424;-82
2022/10/27 00:03:19;;;;;;;18.95;14.05;;;;;;;;;;5039513;28;20418;-82
2022/10/27 00:05:46;;;;;;;16.45;13.85;;;;;;;;;;5041625;28;20922;-83
2022/10/27 00:08:14;;;;;;;17.77;13.48;;;;;;;;;;5044797;28;20425;-82
2022/10/27 00:10:41;;;;;;;19.10;14.80;;;;;;;;;;5044318;28;20443;-83
2022/10/27 00:13:09;;;;;;;16.23;13.30;;;;;;;;;;5042275;28;20432;-83
2022/10/27 00:15:35;;;;;;;18.95;14.00;;;;;;;;;;5044250;28;20422;-82
2022/10/27 00:18:06;;;;;;;16.27;13.85;;;;;;;;;;5042196;28;20430;-82
2022/10/27 00:20:34;;;;;;;19.95;14.68;;;;;;;;;;5041267;28;20961;-83
2022/10/27 00:23:00;;;;;;;18.73;12.68;;;;;;;;;;5043774;28;20415;-82
2022/10/27 00:25:27;;;;;;;17.92;14.70;;;;;;;;;;5040821;28;20425;-82
2022/10/27 00:27:53;;;;;;;17.38;13.65;;;;;;;;;;5041279;28;20448;-83
2022/10/27 00:30:21;;;;;;;20.73;13.85;;;;;;;;;;5040578;28;20431;-83
2022/10/27 00:32:47;;;;;;;21.02;13.77;;;;;;;;;;5040943;28;20946;-84
2022/10/27 00:35:14;;;;;;;17.03;14.10;;;;;;;;;;5042334;28;20409;-82
2022/10/27 00:37:40;;;;;;;21.42;15.02;;;;;;;;;;5039435;28;20425;-82
2022/10/27 00:40:07;;;;;;;18.92;12.98;;;;;;;;;;5041457;28;20889;-82
2022/10/27 00:42:34;;;;;;;17.60;13.60;;;;;;;;;;5043414;28;20427;-82
2022/10/27 00:45:01;;;;;;;16.70;12.50;;;;;;;;;;5043245;28;20436;-82
2022/10/27 00:47:32;;;;;;;18.73;12.53;;;;;;;;;;5041836;28;20432;-81
2022/10/27 00:50:01;;;;;;;15.65;12.23;;;;;;;;;;5039021;28;20459;-84
2022/10/27 00:52:31;;;;;;;17.70;12.85;;;;;;;;;;5041564;28;20432;-83
2022/10/27 00:54:59;;;;;;;19.80;13.05;;;;;;;;;;5046128;28;20432;-82
2022/10/27 00:57:26;;;;;;;15.63;12.32;;;;;;;;;;5040002;28;20435;-83
2022/10/27 00:59:52;;;;;;;20.47;12.33;;;;;;;;;;5044467;28;20426;-83
2022/10/27 01:02:20;;;;;;;15.95;12.38;;;;;;;;;;5039677;28;22074;-83
2022/10/27 01:04:50;;;;;;;16.52;12.85;;;;;;;;;;5040073;28;20434;-82
2022/10/27 01:07:18;;;;;;;17.98;12.77;;;;;;;;;;5035847;28;20790;-83
2022/10/27 01:09:45;;;;;;;22.95;13.35;;;;;;;;;;5042549;28;20425;-82
2022/10/27 01:12:11;;;;;;;15.48;12.45;;;;;;;;;;5039803;28;20943;-83
2022/10/27 01:14:38;;;;;;;21.15;14.38;;;;;;;;;;5039699;28;20426;-83
2022/10/27 01:17:11;;;;;;;18.80;13.05;;;;;;;;;;5041448;28;20445;-84
2022/10/27 01:19:55;;;;;;;20.25;15.02;;;;;;;;;;5041302;28;20439;-84
2022/10/27 01:22:24;;;;;;;21.98;14.82;;;;;;;;;;5041923;28;20512;-84
2022/10/27 01:25:03;;;;;;;19.73;14.70;;;;;;;;;;5039640;28;20429;-84
2022/10/27 01:27:48;;;;;;;22.23;14.48;;;;;;;;;;5038636;28;20871;-84
2022/10/27 01:30:17;;;;;;;15.68;13.98;;;;;;;;;;5038461;28;20945;-84
2022/10/27 01:32:50;;;;;;;18.90;15.02;;;;;;;;;;5040419;28;20428;-83
2022/10/27 01:35:20;;;;;;;21.70;17.50;;;;;;;;;;5039924;28;20440;-84
2022/10/27 01:37:48;;;;;;;21.23;16.63;;;;;;;;;;5038087;28;20435;-83
2022/10/27 01:40:18;;;;;;;21.35;16.20;;;;;;;;;;5044207;28;20421;-84
2022/10/27 01:42:47;;;;;;;19.95;15.27;;;;;;;;;;5043710;28;20438;-83
2022/10/27 01:45:15;;;;;;;22.75;16.10;;;;;;;;;;5040383;28;20427;-84
2022/10/27 01:47:41;;;;;;;28.33;16.48;;;;;;;;;;5041662;28;20428;-84
2022/10/27 01:50:09;;;;;;;23.53;17.17;;;;;;;;;;5042013;28;20413;-84
2022/10/27 01:52:44;;;;;;;21.85;16.45;;;;;;;;;;5038449;28;20426;-84
2022/10/27 01:55:13;;;;;;;24.17;16.40;;;;;;;;;;5040539;28;20413;-83
2022/10/27 01:57:43;;;;;;;24.33;16.35;;;;;;;;;;5041484;28;20918;-83
2022/10/27 02:00:10;;;;;;;24.00;17.23;;;;;;;;;;5041454;28;20433;-84
2022/10/27 02:02:42;;;;;;;23.00;16.15;;;;;;;;;;5040233;28;20423;-85
2022/10/27 02:05:12;;;;;;;21.48;16.10;;;;;;;;;;5042362;28;20499;-84
2022/10/27 02:07:44;;;;;;;19.15;14.80;;;;;;;;;;5037992;28;20431;-84
2022/10/27 02:10:13;;;;;;;19.65;15.95;;;;;;;;;;5042214;28;20436;-84
2022/10/27 02:12:41;;;;;;;23.58;16.90;;;;;;;;;;5040822;28;20419;-84
2022/10/27 02:15:12;;;;;;;19.52;15.75;;;;;;;;;;5039517;28;20498;-84
2022/10/27 02:17:39;;;;;;;22.13;15.33;;;;;;;;;;5037594;28;21045;-84
2022/10/27 02:20:08;;;;;;;19.98;14.90;;;;;;;;;;5038438;28;20491;-84
2022/10/27 02:22:38;;;;;;;19.48;16.48;;;;;;;;;;5040495;28;20419;-83
2022/10/27 02:25:05;;;;;;;18.38;14.20;;;;;;;;;;5042437;28;20436;-84
2022/10/27 02:27:34;;;;;;;23.80;15.68;;;;;;;;;;5037476;28;20420;-83
2022/10/27 02:30:02;;;;;;;20.17;13.90;;;;;;;;;;5038358;28;20436;-84
2022/10/27 02:32:29;;;;;;;18.30;13.95;;;;;;;;;;5043070;28;20997;-83
2022/10/27 02:34:56;;;;;;;21.05;14.20;;;;;;;;;;5037352;28;20427;-84
2022/10/27 02:37:27;;;;;;;16.98;13.52;;;;;;;;;;5040622;28;20782;-83
2022/10/27 02:39:54;;;;;;;14.40;11.50;;;;;;;;;;5038489;28;20431;-84
2022/10/27 02:42:21;;;;;;;13.75;11.00;;;;;;;;;;5043637;28;20427;-83
2022/10/27 02:44:47;;;;;;;13.65;11.80;;;;;;;;;;5041653;28;20434;-83
2022/10/27 02:47:14;;;;;;;13.85;11.98;;;;;;;;;;5041201;28;20440;-84
2022/10/27 02:49:40;;;;;;;17.05;13.10;;;;;;;;;;5042190;28;20447;-83
2022/10/27 02:52:07;;;;;;;14.30;12.73;;;;;;;;;;5042527;28;20415;-82
2022/10/27 02:54:33;;;;;;;17.50;12.40;;;;;;;;;;5045355;28;20858;-83
2022/10/27 02:57:01;;;;;;;15.90;12.82;;;;;;;;;;5045267;28;20418;-83
2022/10/27 02:59:28;;;;;;;15.52;13.35;;;;;;;;;;5043223;28;20444;-83
2022/10/27 03:01:54;;;;;;;15.18;13.30;;;;;;;;;;5044048;28;20417;-83
2022/10/27 03:04:22;;;;;;;17.05;12.65;;;;;;;;;;5041845;28;20431;-84
2022/10/27 03:06:48;;;;;;;14.38;11.90;;;;;;;;;;5043588;28;20487;-84
2022/10/27 03:09:15;;;;;;;19.27;13.43;;;;;;;;;;5043834;28;20411;-82
2022/10/27 03:11:41;;;;;;;15.60;12.32;;;;;;;;;;5042416;28;20411;-83
2022/10/27 03:14:09;;;;;;;16.60;12.70;;;;;;;;;;5046856;28;20453;-84
2022/10/27 03:16:36;;;;;;;13.18;10.80;;;;;;;;;;5043548;28;20421;-83
2022/10/27 03:19:02;;;;;;;14.73;11.40;;;;;;;;;;5045907;28;20423;-82
2022/10/27 03:21:29;;;;;;;12.35;10.80;;;;;;;;;;5044271;28;20483;-83
2022/10/27 03:23:55;;;;;;;16.77;11.75;;;;;;;;;;5043719;28;20412;-83
2022/10/27 03:26:22;;;;;;;15.85;11.30;;;;;;;;;;5041606;28;20422;-83
2022/10/27 03:28:48;;;;;;;19.67;12.25;;;;;;;;;;5046213;28;20924;-84
2022/10/27 03:31:16;;;;;;;18.27;11.87;;;;;;;;;;5045220;28;20423;-84
2022/10/27 03:33:43;;;;;;;14.65;11.10;;;;;;;;;;5045070;28;20424;-84
2022/10/27 03:36:10;;;;;;;15.50;11.88;;;;;;;;;;5042674;28;20416;-83
2022/10/27 03:38:37;;;;;;;16.13;11.23;;;;;;;;;;5040293;28;20445;-83
2022/10/27 03:41:03;;;;;;;17.13;12.18;;;;;;;;;;5043243;28;20427;-83
2022/10/27 03:43:30;;;;;;;16.50;12.35;;;;;;;;;;5042490;28;20436;-83
2022/10/27 03:45:56;;;;;;;17.00;11.87;;;;;;;;;;5042582;28;20404;-83
2022/10/27 03:48:24;;;;;;;15.98;11.50;;;;;;;;;;5043507;28;20419;-83
2022/10/27 03:50:51;;;;;;;15.63;11.02;;;;;;;;;;5041674;28;20443;-83
2022/10/27 03:53:18;;;;;;;15.85;12.43;;;;;;;;;;5042133;28;20781;-83
2022/10/27 03:55:44;;;;;;;18.08;11.55;;;;;;;;;;5044539;28;20421;-83
2022/10/27 03:58:12;;;;;;;17.73;11.75;;;;;;;;;;5041956;28;20433;-83
2022/10/27 04:00:39;;;;;;;14.13;11.00;;;;;;;;;;5037710;28;20429;-84
2022/10/27 04:03:05;;;;;;;18.13;11.55;;;;;;;;;;5044416;28;20929;-84
2022/10/27 04:05:33;;;;;;;15.82;11.55;;;;;;;;;;5042689;28;20423;-83
2022/10/27 04:08:00;;;;;;;19.10;12.18;;;;;;;;;;5042704;28;20426;-83
2022/10/27 04:10:26;;;;;;;13.50;10.57;;;;;;;;;;5042612;28;20429;-83
2022/10/27 04:12:54;;;;;;;16.67;10.87;;;;;;;;;;5041268;28;20421;-84
2022/10/27 04:15:21;;;;;;;15.32;10.70;;;;;;;;;;5041204;28;20958;-84
2022/10/27 04:17:48;;;;;;;12.43;11.13;;;;;;;;;;5041043;28;20437;-83
2022/10/27 04:20:14;;;;;;;13.63;10.90;;;;;;;;;;5044258;28;20426;-84
2022/10/27 04:22:42;;;;;;;15.95;11.68;;;;;;;;;;5041601;28;20421;-84
2022/10/27 04:25:09;;;;;;;18.80;11.30;;;;;;;;;;5040101;28;21152;-83
2022/10/27 04:27:35;;;;;;;17.42;11.13;;;;;;;;;;5035884;28;20438;-83
2022/10/27 04:30:02;;;;;;;14.63;11.63;;;;;;;;;;5039027;28;20434;-84
2022/10/27 04:32:29;;;;;;;15.02;12.38;;;;;;;;;;5038957;28;20835;-83
2022/10/27 04:34:55;;;;;;;18.00;12.30;;;;;;;;;;5044068;28;20428;-83
2022/10/27 04:37:21;;;;;;;15.80;12.45;;;;;;;;;;5043164;28;20440;-84
2022/10/27 04:39:49;;;;;;;17.90;13.60;;;;;;;;;;5045746;28;20429;-83
2022/10/27 04:42:16;;;;;;;18.00;12.40;;;;;;;;;;5043108;28;20417;-84
2022/10/27 04:44:44;;;;;;;17.63;12.70;;;;;;;;;;5040781;28;20431;-83
2022/10/27 04:47:10;;;;;;;16.00;12.55;;;;;;;;;;5043627;28;20425;-84
2022/10/27 04:49:37;;;;;;;18.17;12.35;;;;;;;;;;5045025;28;20507;-83
2022/10/27 04:52:03;;;;;;;16.50;11.60;;;;;;;;;;5041789;28;20436;-83
2022/10/27 04:54:30;;;;;;;14.85;12.05;;;;;;;;;;5036341;28;20442;-81
2022/10/27 04:56:58;;;;;;;20.52;12.85;;;;;;;;;;5042288;28;20436;-81
2022/10/27 04:59:24;;;;;;;18.80;13.70;;;;;;;;;;5040871;28;20772;-81
2022/10/27 05:01:51;;;;;;;17.98;12.25;;;;;;;;;;5044306;28;20417;-81
2022/10/27 05:04:17;;;;;;;16.33;11.10;;;;;;;;;;5039654;28;20434;-81
2022/10/27 05:06:44;;;;;;;16.27;12.27;;;;;;;;;;5040928;28;20512;-81
2022/10/27 05:09:10;;;;;;;20.05;12.57;;;;;;;;;;5039557;28;20431;-81
2022/10/27 05:11:36;;;;;;;15.80;12.83;;;;;;;;;;5039560;28;20418;-81
2022/10/27 05:14:04;;;;;;;17.33;12.70;;;;;;;;;;5041676;28;20437;-81
2022/10/27 05:16:31;;;;;;;19.77;12.77;;;;;;;;;;5040369;28;20416;-80
2022/10/27 05:18:57;;;;;;;19.73;14.20;;;;;;;;;;5042097;28;20429;-81
2022/10/27 05:21:23;;;;;;;20.65;14.30;;;;;;;;;;5039056;28;20437;-80
2022/10/27 05:23:50;;;;;;;22.50;15.05;;;;;;;;;;5045658;28;20429;-80
2022/10/27 05:26:16;;;;;;;19.38;14.88;;;;;;;;;;5042004;28;20520;-80
2022/10/27 05:28:43;;;;;;;18.50;14.50;;;;;;;;;;5041180;28;20785;-81
2022/10/27 05:31:11;;;;;;;19.33;13.75;;;;;;;;;;5037463;28;20935;-80
2022/10/27 05:33:38;;;;;;;16.05;13.60;;;;;;;;;;5040095;28;20533;-80
2022/10/27 05:36:05;;;;;;;18.30;14.85;;;;;;;;;;5041009;28;20868;-81
2022/10/27 05:38:31;;;;;;;17.47;13.30;;;;;;;;;;5040699;28;20430;-80
2022/10/27 05:40:58;;;;;;;17.35;13.35;;;;;;;;;;5039883;28;20411;-81
2022/10/27 05:43:25;;;;;;;18.42;12.07;;;;;;;;;;5038955;28;20437;-81
2022/10/27 05:45:51;;;;;;;18.45;12.60;;;;;;;;;;5042589;28;20429;-81
2022/10/27 05:48:19;;;;;;;19.55;12.75;;;;;;;;;;5040379;28;20491;-80
2022/10/27 05:50:46;;;;;;;21.33;13.65;;;;;;;;;;5040104;28;21063;-82
2022/10/27 05:53:12;;;;;;;17.55;14.00;;;;;;;;;;5039626;28;20441;-81
2022/10/27 05:55:39;;;;;;;19.30;13.80;;;;;;;;;;5039303;28;20436;-80
2022/10/27 05:58:05;;;;;;;24.70;16.77;;;;;;;;;;5041574;28;20451;-80
2022/10/27 06:00:34;;;;;;;19.25;14.88;;;;;;;;;;5040087;28;20452;-81
2022/10/27 06:03:01;;;;;;;23.42;15.10;;;;;;;;;;5038770;28;20455;-80
2022/10/27 06:05:30;;;;;;;21.13;15.00;;;;;;;;;;5041695;28;20409;-80
2022/10/27 06:07:57;;;;;;;21.83;15.93;;;;;;;;;;5035904;28;20425;-80
2022/10/27 06:10:24;;;;;;;26.17;16.27;;;;;;;;;;5039760;28;20441;-80
2022/10/27 06:12:50;;;;;;;25.20;17.25;;;;;;;;;;5039488;28;20421;-80
2022/10/27 06:15:16;;;;;;;27.10;17.27;;;;;;;;;;5037819;28;20423;-81
2022/10/27 06:17:43;;;;;;;23.90;17.40;;;;;;;;;;5044504;28;20419;-80
2022/10/27 06:20:10;;;;;;;22.15;16.75;;;;;;;;;;5045729;28;20440;-80
2022/10/27 06:22:37;;;;;;;30.48;18.50;;;;;;;;;;5043816;28;20429;-81
2022/10/27 06:25:04;;;;;;;27.67;19.50;;;;;;;;;;5046331;28;20467;-80
2022/10/27 06:27:31;;;;;;;30.98;19.63;;;;;;;;;;5045637;28;20417;-80
2022/10/27 06:29:57;;;;;;;37.13;22.05;;;;;;;;;;5042788;28;20930;-81
2022/10/27 06:32:24;;;;;;;30.88;21.95;;;;;;;;;;5044737;28;20429;-81
2022/10/27 06:34:51;;;;;;;34.22;22.48;;;;;;;;;;5045123;28;20424;-81
2022/10/27 06:37:17;;;;;;;42.15;25.60;;;;;;;;;;5042593;28;20923;-81
2022/10/27 06:39:46;;;;;;;35.42;23.38;;;;;;;;;;5044642;28;20453;-81
2022/10/27 06:42:12;;;;;;;32.97;23.55;;;;;;;;;;5043379;28;20425;-80
2022/10/27 06:44:39;;;;;;;31.50;22.10;;;;;;;;;;5044323;28;20521;-87
2022/10/27 06:47:05;;;;;;;42.20;23.98;;;;;;;;;;5045277;28;20508;-82
2022/10/27 06:49:32;;;;;;;32.80;22.00;;;;;;;;;;5042530;28;20792;-81
2022/10/27 06:51:59;;;;;;;36.50;23.98;;;;;;;;;;5043797;28;20421;-80
2022/10/27 06:54:25;;;;;;;32.70;21.05;;;;;;;;;;5044631;28;20474;-80
2022/10/27 06:56:53;;;;;;;46.65;28.38;;;;;;;;;;5044090;28;20425;-84
2022/10/27 06:59:19;;;;;;;41.30;24.02;;;;;;;;;;5039219;28;20434;-80
2022/10/27 07:01:46;;;;;;;36.38;23.80;;;;;;;;;;5044174;28;20434;-81
2022/10/27 07:04:12;;;;;;;42.90;26.02;;;;;;;;;;5043774;28;20434;-81
2022/10/27 07:06:39;;;;;;;43.67;30.00;;;;;;;;;;5044641;28;20435;-81
2022/10/27 07:09:05;;;;;;;53.00;32.10;;;;;;;;;;5043953;28;20780;-80
2022/10/27 07:11:32;;;;;;;48.33;31.67;;;;;;;;;;5043269;28;20429;-82
2022/10/27 07:14:00;;;;;;;46.77;30.27;;;;;;;;;;5042926;28;20438;-81
2022/10/27 07:16:26;;;;;;;46.78;29.50;;;;;;;;;;5042443;28;20419;-80
2022/10/27 07:18:52;;;;;;;53.30;33.30;;;;;;;;;;5044374;28;20437;-81
2022/10/27 07:21:19;;;;;;;49.10;29.52;;;;;;;;;;5046987;28;20418;-80
2022/10/27 07:23:45;;;;;;;39.97;28.98;;;;;;;;;;5046833;28;20429;-82
2022/10/27 07:26:12;;;;;;;45.20;29.35;;;;;;;;;;5045444;28;20487;-82
2022/10/27 07:28:38;;;;;;;48.17;31.80;;;;;;;;;;5043646;28;20432;-81
2022/10/27 07:31:06;;;;;;;41.38;28.55;;;;;;;;;;5042787;28;20802;-81
2022/10/27 07:33:33;;;;;;;44.10;29.65;;;;;;;;;;5041874;28;20901;-81
2022/10/27 07:35:59;;;;;;;43.42;28.90;;;;;;;;;;5044458;28;20409;-81
2022/10/27 07:38:25;;;;;;;43.33;27.85;;;;;;;;;;5042510;28;20429;-81
2022/10/27 07:40:52;;;;;;;42.78;29.23;;;;;;;;;;5041468;28;20442;-81
2022/10/27 07:43:18;;;;;;;42.25;29.27;;;;;;;;;;5042908;28;20439;-81
2022/10/27 07:45:45;;;;;;;42.50;29.05;;;;;;;;;;5044405;28;20428;-81
2022/10/27 07:48:14;;;;;;;36.85;27.50;;;;;;;;;;5040457;28;20429;-81
2022/10/27 07:50:41;;;;;;;43.92;28.40;;;;;;;;;;5042743;28;20445;-82
2022/10/27 07:53:07;;;;;;;49.90;28.77;;;;;;;;;;5043133;28;20515;-82
2022/10/27 07:55:35;;;;;;;40.85;28.83;;;;;;;;;;5044849;28;20441;-82
2022/10/27 07:58:02;;;;;;;40.75;26.83;;;;;;;;;;5043060;28;20947;-82
2022/10/27 08:00:29;;;;;;;39.10;27.90;;;;;;;;;;5040420;28;20805;-82
2022/10/27 08:02:55;;;;;;;39.42;27.67;;;;;;;;;;5041874;28;20421;-81
2022/10/27 08:05:24;;;;;;;37.25;26.55;;;;;;;;;;5042278;28;20436;-81
2022/10/27 08:07:50;;;;;;;34.00;26.13;;;;;;;;;;5042846;28;20432;-81
2022/10/27 08:10:16;;;;;;;38.95;26.33;;;;;;;;;;5046969;28;20415;-81
2022/10/27 08:12:43;;;;;;;35.10;26.05;;;;;;;;;;5039610;28;20425;-81
2022/10/27 08:15:10;;;;;;;36.40;25.55;;;;;;;;;;5043128;28;20417;-81
2022/10/27 08:17:37;;;;;;;31.80;23.40;;;;;;;;;;5042837;28;20433;-81
2022/10/27 08:20:03;;;;;;;34.97;24.20;;;;;;;;;;5040233;28;20473;-81
2022/10/27 08:22:31;;;;;;;34.50;23.98;;;;;;;;;;5040458;28;20430;-81
2022/10/27 08:24:57;;;;;;;34.83;24.55;;;;;;;;;;5047152;28;20428;-81
2022/10/27 08:27:24;;;;;;;34.33;25.13;;;;;;;;;;5039699;28;20426;-81
2022/10/27 08:29:50;;;;;;;33.80;23.10;;;;;;;;;;5041029;28;20441;-81
2022/10/27 08:32:17;;;;;;;31.60;24.45;;;;;;;;;;5041988;28;20423;-81
2022/10/27 08:34:44;;;;;;;32.42;21.55;;;;;;;;;;5041649;28;20477;-81
2022/10/27 08:37:10;;;;;;;30.43;23.80;;;;;;;;;;5037766;28;20426;-81
2022/10/27 08:39:38;;;;;;;30.70;21.15;;;;;;;;;;5037399;28;20417;-81
2022/10/27 08:42:09;;;;;;;30.38;21.83;;;;;;;;;;5042541;28;20433;-81
2022/10/27 08:44:39;;;;;;;28.63;20.20;;;;;;;;;;5044591;28;20435;-81
2022/10/27 08:47:10;;;;;;;28.75;20.80;;;;;;;;;;5038940;28;20417;-81
2022/10/27 08:49:38;;;;;;;27.88;21.08;;;;;;;;;;5042166;28;20429;-81
2022/10/27 08:52:10;;;;;;;28.50;20.10;;;;;;;;;;5044027;28;20432;-81
2022/10/27 08:54:39;;;;;;;29.50;20.42;;;;;;;;;;5041555;28;20425;-81
2022/10/27 08:57:05;;;;;;;22.33;18.10;;;;;;;;;;5044947;28;20437;-81
2022/10/27 08:59:33;;;;;;;19.85;16.85;;;;;;;;;;5044934;28;20425;-81
2022/10/27 09:02:06;;;;;;;22.48;17.30;;;;;;;;;;5041927;28;20430;-81
2022/10/27 09:04:53;;;;;;;22.40;16.30;;;;;;;;;;5044379;28;20443;-81
2022/10/27 09:07:24;;;;;;;22.55;15.43;;;;;;;;;;5036018;28;20421;-81
2022/10/27 09:09:54;;;;;;;20.58;16.25;;;;;;;;;;5040663;28;20433;-81
2022/10/27 09:12:35;;;;;;;21.85;15.07;;;;;;;;;;5042913;28;20418;-81
2022/10/27 09:15:16;;;;;;;19.48;14.68;;;;;;;;;;5042212;28;20447;-79
2022/10/27 09:17:44;;;;;;;17.55;15.05;;;;;;;;;;5042092;28;20425;-82
2022/10/27 09:20:17;;;;;;;20.50;15.85;;;;;;;;;;5040672;28;20434;-81
2022/10/27 09:22:43;;;;;;;24.80;15.52;;;;;;;;;;5043101;28;20429;-82
2022/10/27 09:25:16;;;;;;;20.00;13.20;;;;;;;;;;5038236;28;20441;-79
2022/10/27 09:27:43;;;;;;;17.30;14.38;;;;;;;;;;5042821;28;20426;-82
2022/10/27 09:30:12;;;;;;;16.33;13.30;;;;;;;;;;5042080;28;20433;-81
2022/10/27 09:32:40;;;;;;;19.00;13.82;;;;;;;;;;5039367;28;20926;-82
2022/10/27 09:35:10;;;;;;;17.90;14.05;;;;;;;;;;5042435;28;20451;-80
2022/10/27 09:37:40;;;;;;;20.42;13.25;;;;;;;;;;5039649;28;20425;-81
2022/10/27 09:40:10;;;;;;;20.20;12.93;;;;;;;;;;5042589;28;20413;-82
2022/10/27 09:42:38;;;;;;;16.40;12.27;;;;;;;;;;5039257;28;20417;-80
2022/10/27 09:45:12;;;;;;;17.15;13.10;;;;;;;;;;5044727;28;20417;-81
2022/10/27 09:47:40;;;;;;;15.15;10.80;;;;;;;;;;5037346;28;20431;-80
2022/10/27 09:50:14;;;;;;;18.58;12.13;;;;;;;;;;5041014;28;20437;-79
2022/10/27 09:52:42;;;;;;;16.70;12.10;;;;;;;;;;5037629;28;20430;-80
2022/10/27 09:55:08;;;;;;;18.05;11.85;;;;;;;;;;5040248;28;20426;-80
2022/10/27 09:57:36;;;;;;;15.30;10.80;;;;;;;;;;5042325;28;20414;-80
2022/10/27 10:00:06;;;;;;;14.80;10.93;;;;;;;;;;5040429;28;20796;-79
2022/10/27 10:02:33;;;;;;;17.00;10.90;;;;;;;;;;5037903;28;20429;-79
2022/10/27 10:05:00;;;;;;;14.70;10.70;;;;;;;;;;5041966;28;20429;-79
2022/10/27 10:07:30;;;;;;;18.20;10.05;;;;;;;;;;5040195;28;20435;-79
2022/10/27 10:10:00;;;;;;;13.88;9.32;;;;;;;;;;5040981;28;20445;-80
2022/10/27 10:12:26;;;;;;;12.18;9.20;;;;;;;;;;5042127;28;20801;-81
2022/10/27 10:15:14;;;;;;;12.70;8.60;;;;;;;;;;5039344;28;20918;-79
2022/10/27 10:17:42;;;;;;;14.85;8.90;;;;;;;;;;5042365;28;20429;-79
2022/10/27 10:20:23;;;;;;;10.43;7.50;;;;;;;;;;5040456;28;20437;-80
2022/10/27 10:22:50;;;;;;;12.77;8.50;;;;;;;;;;5040777;28;20419;-80
2022/10/27 10:25:20;;;;;;;13.45;8.50;;;;;;;;;;5038313;28;20425;-79
2022/10/27 10:27:48;;;;;;;13.70;8.35;;;;;;;;;;5039371;28;20428;-79
2022/10/27 10:30:18;;;;;;;13.82;8.27;;;;;;;;;;5044982;28;20436;-80
2022/10/27 10:32:48;;;;;;;12.35;7.82;;;;;;;;;;5036347;28;21037;-80
2022/10/27 10:35:32;;;;;;;11.20;7.13;;;;;;;;;;5041288;28;20440;-79
2022/10/27 10:37:59;;;;;;;9.88;6.82;;;;;;;;;;5036379;28;20456;-80
2022/10/27 10:40:29;;;;;;;11.82;6.53;;;;;;;;;;5042054;28;20430;-81
2022/10/27 10:43:09;;;;;;;11.23;7.53;;;;;;;;;;5041556;28;20430;-79
2022/10/27 10:45:35;;;;;;;10.75;7.03;;;;;;;;;;5040610;28;20429;-81
2022/10/27 10:48:06;;;;;;;10.20;5.55;;;;;;;;;;5040015;28;21017;-81
2022/10/27 10:50:42;;;;;;;11.00;5.80;;;;;;;;;;5039616;28;21258;-81
2022/10/27 10:53:14;;;;;;;9.90;5.88;;;;;;;;;;5041312;28;20932;-81
2022/10/27 10:55:41;;;;;;;10.20;5.40;;;;;;;;;;5037795;28;20435;-80
2022/10/27 10:58:14;;;;;;;7.53;4.72;;;;;;;;;;5037766;28;20932;-79
2022/10/27 11:00:51;;;;;;;11.10;5.20;;;;;;;;;;5041684;28;20434;-82
2022/10/27 11:03:19;;;;;;;8.15;5.60;;;;;;;;;;5041233;28;20452;-79
2022/10/27 11:05:52;;;;;;;6.23;4.30;;;;;;;;;;5044863;28;20437;-81
2022/10/27 11:08:20;;;;;;;6.55;4.70;;;;;;;;;;5042484;28;20433;-79
2022/10/27 11:10:47;;;;;;;8.20;4.93;;;;;;;;;;5047035;28;20443;-79
2022/10/27 11:13:16;;;;;;;8.27;4.90;;;;;;;;;;5043407;28;20436;-79
2022/10/27 11:15:44;;;;;;;7.25;4.63;;;;;;;;;;5040544;28;20431;-81
2022/10/27 11:18:13;;;;;;;9.57;5.05;;;;;;;;;;5046495;28;20452;-80
2022/10/27 11:20:41;;;;;;;9.70;4.40;;;;;;;;;;5042248;28;20445;-80
2022/10/27 11:23:14;;;;;;;11.23;4.82;;;;;;;;;;5044641;28;20434;-81
2022/10/27 11:25:41;;;;;;;8.05;4.93;;;;;;;;;;5042243;28;20428;-79
2022/10/27 11:28:15;;;;;;;5.32;4.20;;;;;;;;;;5043758;28;20432;-79
2022/10/27 11:30:44;;;;;;;9.60;4.10;;;;;;;;;;5041339;28;20439;-80
2022/10/27 11:33:15;;;;;;;6.35;4.10;;;;;;;;;;5042280;28;20430;-81
2022/10/27 11:35:46;;;;;;;5.05;3.65;;;;;;;;;;5043905;28;20438;-81
2022/10/27 11:38:16;;;;;;;7.68;4.43;;;;;;;;;;5044177;28;20479;-80
2022/10/27 11:40:46;;;;;;;7.15;3.63;;;;;;;;;;5043674;28;20413;-79
2022/10/27 11:43:17;;;;;;;6.75;4.38;;;;;;;;;;5044853;28;20427;-80
2022/10/27 11:45:46;;;;;;;5.75;4.30;;;;;;;;;;5043537;28;20439;-80
2022/10/27 11:48:15;;;;;;;6.75;3.75;;;;;;;;;;5042781;28;20442;-79
2022/10/27 11:50:46;;;;;;;5.72;3.63;;;;;;;;;;5045028;28;20442;-80
2022/10/27 11:53:14;;;;;;;7.35;4.20;;;;;;;;;;5040136;28;20442;-80
2022/10/27 11:55:49;;;;;;;9.20;3.60;;;;;;;;;;5044889;28;20435;-80
2022/10/27 11:58:21;;;;;;;7.65;3.55;;;;;;;;;;5046243;28;20425;-81
2022/10/27 12:00:53;;;;;;;7.45;4.07;;;;;;;;;;5042525;28;20438;-80
2022/10/27 12:03:35;;;;;;;8.93;4.45;;;;;;;;;;5044666;28;20915;-79
2022/10/27 12:06:05;;;;;;;6.05;4.10;;;;;;;;;;5039744;28;20410;-80
2022/10/27 12:08:40;;;;;;;6.35;3.80;;;;;;;;;;5044455;28;20472;-81
2022/10/27 12:11:16;;;;;;;9.30;3.83;;;;;;;;;;5042345;28;20432;-81
2022/10/27 12:13:45;;;;;;;6.80;4.00;;;;;;;;;;5044278;28;20431;-80
2022/10/27 12:16:16;;;;;;;9.27;4.30;;;;;;;;;;5042160;28;20441;-80
2022/10/27 12:18:47;;;;;;;9.73;4.10;;;;;;;;;;5044766;28;20512;-79
2022/10/27 12:21:17;;;;;;;6.45;4.40;;;;;;;;;;5042111;28;20850;-79
2022/10/27 12:23:47;;;;;;;8.70;4.40;;;;;;;;;;5044171;28;20933;-79
2022/10/27 12:26:17;;;;;;;5.53;3.92;;;;;;;;;;5041564;28;20425;-80
2022/10/27 12:28:44;;;;;;;8.57;4.20;;;;;;;;;;5040152;28;20766;-80
2022/10/27 12:31:13;;;;;;;10.00;4.10;;;;;;;;;;5042839;28;20472;-80
2022/10/27 12:33:43;;;;;;;5.38;4.32;;;;;;;;;;5045871;28;20441;-82
2022/10/27 12:36:15;;;;;;;7.78;4.20;;;;;;;;;;5044019;28;20424;-80
2022/10/27 12:38:44;;;;;;;6.60;3.90;;;;;;;;;;5042225;28;20473;-79
2022/10/27 12:41:16;;;;;;;6.65;4.03;;;;;;;;;;5040150;28;20435;-81
2022/10/27 12:43:50;;;;;;;8.40;4.35;;;;;;;;;;5045867;28;20492;-82
2022/10/27 12:46:23;;;;;;;7.28;3.90;;;;;;;;;;5041427;28;20508;-80
2022/10/27 12:48:53;;;;;;;7.93;3.50;;;;;;;;;;5040614;28;20918;-79
2022/10/27 12:51:26;;;;;;;5.05;3.90;;;;;;;;;;5039158;28;20449;-81
2022/10/27 12:53:54;;;;;;;9.03;4.57;;;;;;;;;;5044044;28;20430;-81
2022/10/27 12:56:31;;;;;;;7.55;3.40;;;;;;;;;;5039814;28;20417;-80
2022/10/27 12:59:02;;;;;;;7.97;4.15;;;;;;;;;;5039496;28;20433;-80
2022/10/27 13:01:37;;;;;;;9.35;4.30;;;;;;;;;;5042122;28;20536;-80
2022/10/27 13:04:09;;;;;;;9.38;4.88;;;;;;;;;;5043388;28;20464;-80
2022/10/27 13:06:53;;;;;;;10.40;4.20;;;;;;;;;;5042457;28;20780;-81
2022/10/27 13:09:30;;;;;;;7.53;3.90;;;;;;;;;;5041342;28;20434;-81
2022/10/27 13:12:08;;;;;;;9.07;4.00;;;;;;;;;;5042866;28;20426;-80
2022/10/27 13:14:49;;;;;;;5.60;4.18;;;;;;;;;;5042666;28;20445;-80
2022/10/27 13:17:22;;;;;;;6.03;4.00;;;;;;;;;;5038111;28;20430;-80
2022/10/27 13:19:52;;;;;;;8.07;4.68;;;;;;;;;;5039672;28;20532;-82
2022/10/27 13:22:23;;;;;;;7.97;4.45;;;;;;;;;;5044194;28;20429;-82
2022/10/27 13:24:53;;;;;;;9.10;4.47;;;;;;;;;;5041091;28;20462;-83
2022/10/27 13:27:25;;;;;;;8.88;4.25;;;;;;;;;;5043383;28;20433;-82
2022/10/27 13:29:55;;;;;;;6.28;4.13;;;;;;;;;;5045230;28;20835;-82
2022/10/27 13:32:39;;;;;;;9.43;4.05;;;;;;;;;;5041661;28;20426;-83
2022/10/27 13:35:28;;;;;;;7.40;4.30;;;;;;;;;;5044668;28;20439;-82
2022/10/27 13:38:13;;;;;;;7.95;4.40;;;;;;;;;;5041242;28;20424;-82
2022/10/27 13:40:40;;;;;;;8.55;4.65;;;;;;;;;;5036622;28;20463;-81
2022/10/27 13:43:25;;;;;;;8.93;4.75;;;;;;;;;;5036737;28;20485;-82
2022/10/27 13:45:53;;;;;;;5.97;4.53;;;;;;;;;;5040806;28;20931;-81
2022/10/27 13:48:33;;;;;;;6.40;4.82;;;;;;;;;;5039101;28;20922;-82
2022/10/27 13:51:19;;;;;;;6.50;4.40;;;;;;;;;;5041480;28;20863;-82
2022/10/27 13:53:46;;;;;;;9.10;4.32;;;;;;;;;;5040661;28;20429;-81
2022/10/27 13:56:27;;;;;;;9.70;5.50;;;;;;;;;;5038818;28;20426;-82
2022/10/27 13:59:00;;;;;;;6.88;5.20;;;;;;;;;;5040847;28;20773;-82
2022/10/27 14:01:46;;;;;;;10.98;5.00;;;;;;;;;;5042526;28;20443;-82
2022/10/27 14:04:20;;;;;;;7.60;5.10;;;;;;;;;;5040556;28;20427;-82
2022/10/27 14:06:47;;;;;;;10.82;5.03;;;;;;;;;;5041492;28;20931;-81
2022/10/27 14:09:22;;;;;;;8.35;4.70;;;;;;;;;;5039971;28;20427;-82
2022/10/27 14:11:49;;;;;;;7.50;4.88;;;;;;;;;;5039859;28;20442;-82
2022/10/27 14:14:20;;;;;;;8.85;5.22;;;;;;;;;;5042628;28;20429;-82
2022/10/27 14:16:48;;;;;;;7.65;4.50;;;;;;;;;;5040524;28;20426;-82
2022/10/27 14:19:16;;;;;;;9.32;5.60;;;;;;;;;;5041959;28;20445;-81
2022/10/27 14:21:45;;;;;;;8.85;5.40;;;;;;;;;;5037716;28;20442;-82
2022/10/27 14:24:15;;;;;;;7.78;5.07;;;;;;;;;;5043361;28;20927;-82
2022/10/27 14:26:41;;;;;;;9.95;5.20;;;;;;;;;;5041525;28;20421;-81
2022/10/27 14:29:18;;;;;;;8.98;5.30;;;;;;;;;;5042599;28;20456;-84
2022/10/27 14:31:45;;;;;;;8.10;4.43;;;;;;;;;;5043921;28;20457;-82
2022/10/27 14:34:17;;;;;;;7.70;4.70;;;;;;;;;;5043385;28;20425;-81